Crown College, Minnesota
Current Conditions -  °F | °C
As of 6:53 AM on Thursday 23 Oct 2014 (Local Time) from KFCM Reporting Station
Overcast Overcast  
Wind Chill: 53°   Ceiling: 800
Heat Index: 53°   Visibility: 10mi
Dew Point: 51°   Wind: 6mph
Humidity: 93%   Direction: 190°S
Pressure: 29.98"   Gusts: NA
Location:  44.9069°N, 93.7466°W
Report Text: KFCM 231153Z 19005KT 10SM OVC008 12/11 A2998 RMK AO2 SLP152 60004 70004 T01170106 10139 20111 55002
Loading
Personal Weather Stations






























Interactive Weather Map
Tropical Storm Tracking
New forecast layout! Learn more

10-Day Weather Forecast

Advertisements
Track Severe Weather on mobile